Crossville Memorial Whitson Field Crossville US
ICAO: KCSV
IATA: CSV
Category: Medium
Scheduled Services: No

Elevation: 1881 ft
TransAlt. 18000 ft.

Airport Communications:
ASOS:120.625
ATLANTA CNTR:133.6
NASHVILLE RDO:122.2
CTAF/UNICOM:122.7

KCSV Zoom In..

Runways:

(A) RW 08 length 5418 ft width 100 ft
---- / hdg 75

(B) RW 26 length 5418 ft width 100 ft
ILS 109.10 / hdg 255

Location; KCSV
Day. 24 / Time. 01.53 Zulu
* Altimeter: 30.14
* Temperature: 02° c. 35.6°f.
* Wind from: 290° Speed 11 kn.
Dewpoint: -02° c.
Visibility: 10 Statute Miles.
Clouds: Few 2100 ft.
Clouds: Overcast 3000 ft.

KCSV 240153Z AUTO 29011KT 10SM FEW021 OVC030 02/M02 A3014 RMK AO2 SLP213 T00221022


Wind From 290°
Speed 11 kn.

YouTube Music Video
 
jpsmedia.com for Web Design  worldairports.se 2018   terms of use